Hlavní strana
METAR-TAF:

METAR-TAF

Letiště :

Kärdla, Estonsko

zeměpisná šířka: 58-59N, zeměpisná délka: 022-49E, výška: 5 m

Aktuální stav počasí

Zpráva byla vytvořena před 25 minutami, v 12:50 UTC
Západoseverozápadní vítr 10 kt
Teplota
Tlak 1022 hPa
Viditelnost 10 km a více
Polojasno ve výšce 2700 ft

METAR: EEKA 251250Z 30010KT 9999 SCT027 12/043 Q1022

Čas: 16:15 (13:15 UTC)

Předpověď počasí

Zpráva byla vytvořena před 1 hodinou a 15 minutami, v 12:00 UTC
Předpověď platná od 25 v 13 UTC do 25 v 19 UTC
Severozápadní vítr 15 kt
Viditelnost 10 km a více
Oblačno až skoro zataženo ve výšce 3000 ft

TAF: EEKA 251200Z 2513/2519 31015KT 9999 BKN030

Stav a předpovědi počasí z více než 4 000 letišť (zprávy METAR a TAF).

Červené a žluté tečky na mapě představují dostupné meteorologické stanice.

Když kurzor umístíte na tečku, zobrazí se název stanice.

Pak kliknutím zobrazíte stav a předpověď počasí.

Chcete-li změnit mapu, kliknutím na zelené tlačítko se znaménkem +mapu přiblížíte, kliknutím na zelené tlačítko se znaménkem – mapu oddálíte a kliknutím na zelené šipky přejdete na sousední mapy.


METAR-TAF: